Time;durP1;ratioP1;P1;durP2;ratioP2;P2;SDS_P1;SDS_P2;PMS_P1;PMS_P2;Temp;Humidity;BMP_temperature;BMP_pressure;BME280_temperature;BME280_humidity;BME280_pressure;Samples;Min_cycle;Max_cycle;Signal;HPM_P1;HPM_P2
2022/11/17 00:02:06;;;;;;;0.40;0.40;;;15.20;95.20;;;;;;5071336;28;20300;-66
2022/11/17 00:04:54;;;;;;;0.40;0.40;;;15.20;95.20;;;;;;5052845;28;20243;-66
2022/11/17 00:07:43;;;;;;;0.40;0.40;;;15.20;95.20;;;;;;5051467;28;20197;-65
2022/11/17 00:10:31;;;;;;;0.40;0.40;;;15.20;95.10;;;;;;5053434;28;20709;-66
2022/11/17 00:16:26;;;;;;;0.40;0.40;;;15.20;95.40;;;;;;5055026;28;20209;-66
2022/11/17 00:22:17;;;;;;;0.40;0.40;;;15.20;95.10;;;;;;5022834;28;20705;-66
2022/11/17 00:25:05;;;;;;;0.40;0.40;;;15.20;95.10;;;;;;5055193;28;20285;-66
2022/11/17 00:27:53;;;;;;;0.40;0.40;;;15.20;95.10;;;;;;5055039;28;20193;-66
2022/11/17 00:34:07;;;;;;;0.40;0.40;;;15.20;95.00;;;;;;5055171;28;20212;-66
2022/11/17 00:36:55;;;;;;;0.40;0.40;;;15.20;95.00;;;;;;5055007;28;20643;-66
2022/11/17 00:39:43;;;;;;;0.40;0.40;;;15.20;95.10;;;;;;5062032;28;20201;-66
2022/11/17 00:42:31;;;;;;;0.40;0.40;;;15.20;94.80;;;;;;5075497;28;20338;-66
2022/11/17 00:45:19;;;;;;;0.40;0.40;;;15.20;95.10;;;;;;5075324;28;20275;-66
2022/11/17 00:48:07;;;;;;;0.40;0.40;;;15.20;95.00;;;;;;5074465;28;20188;-66
2022/11/17 00:50:57;;;;;;;0.40;0.40;;;15.20;94.90;;;;;;5074225;28;20765;-66
2022/11/17 00:53:45;;;;;;;0.40;0.40;;;15.20;94.80;;;;;;5074398;28;20261;-66
2022/11/17 00:56:33;;;;;;;0.40;0.40;;;15.20;95.00;;;;;;5075091;28;20279;-66
2022/11/17 00:59:22;;;;;;;0.40;0.40;;;15.20;95.10;;;;;;5074760;28;20676;-66
2022/11/17 01:02:10;;;;;;;0.60;0.60;;;15.20;94.80;;;;;;5074053;28;20217;-66
2022/11/17 01:04:58;;;;;;;0.40;0.40;;;15.20;94.80;;;;;;5073944;28;20279;-66
2022/11/17 01:07:47;;;;;;;0.40;0.40;;;15.20;94.50;;;;;;5074486;28;20282;-66
2022/11/17 01:10:36;;;;;;;0.40;0.40;;;15.10;94.50;;;;;;5073700;28;20215;-66
2022/11/17 01:13:24;;;;;;;0.40;0.40;;;15.10;94.70;;;;;;5074400;28;20274;-66
2022/11/17 01:16:13;;;;;;;0.40;0.40;;;15.10;94.60;;;;;;5073700;28;20280;-66
2022/11/17 01:19:02;;;;;;;0.40;0.40;;;15.10;94.80;;;;;;5073704;28;20597;-66
2022/11/17 01:21:50;;;;;;;0.40;0.40;;;15.10;94.90;;;;;;5072936;28;20303;-66
2022/11/17 01:24:40;;;;;;;0.40;0.40;;;15.10;94.70;;;;;;5074548;28;20331;-66
2022/11/17 01:27:28;;;;;;;0.40;0.40;;;15.10;94.90;;;;;;5073817;28;20209;-66
2022/11/17 01:30:17;;;;;;;0.40;0.40;;;15.10;94.80;;;;;;5073642;28;20284;-66
2022/11/17 01:33:05;;;;;;;0.40;0.40;;;15.00;94.90;;;;;;5074613;28;20293;-66
2022/11/17 01:35:53;;;;;;;0.40;0.40;;;15.10;95.10;;;;;;5073931;28;20291;-66
2022/11/17 01:38:41;;;;;;;1.48;1.48;;;15.10;94.80;;;;;;5073452;28;20288;-66
2022/11/17 01:41:31;;;;;;;1.20;1.20;;;15.10;94.60;;;;;;5054388;28;20217;-66
2022/11/17 01:44:51;;;;;;;0.40;0.40;;;15.10;94.70;;;;;;5053835;28;20775;-66
2022/11/17 01:47:45;;;;;;;0.40;0.40;;;15.10;94.60;;;;;;5054155;28;20584;-66
2022/11/17 01:50:36;;;;;;;0.60;0.60;;;15.10;94.50;;;;;;5052995;28;20263;-66
2022/11/17 01:53:27;;;;;;;3.03;2.42;;;15.10;94.80;;;;;;5053633;28;20292;-66
2022/11/17 01:56:21;;;;;;;0.40;0.40;;;15.10;94.90;;;;;;5053207;28;20241;-66
2022/11/17 01:59:15;;;;;;;0.40;0.40;;;15.10;94.20;;;;;;5052969;28;20217;-66
2022/11/17 02:02:03;;;;;;;0.40;0.40;;;15.10;94.20;;;;;;5053367;28;20308;-66
2022/11/17 02:04:57;;;;;;;0.40;0.40;;;15.10;94.30;;;;;;5052120;28;20592;-66
2022/11/17 02:07:49;;;;;;;0.40;0.40;;;15.10;94.20;;;;;;5071587;28;20280;-66
2022/11/17 02:10:37;;;;;;;0.40;0.40;;;15.10;94.20;;;;;;5071922;28;20197;-66
2022/11/17 02:13:27;;;;;;;0.40;0.40;;;15.10;94.30;;;;;;5073119;28;20196;-66
2022/11/17 02:16:17;;;;;;;0.40;0.40;;;15.10;94.40;;;;;;5075421;28;20675;-66
2022/11/17 02:19:05;;;;;;;0.40;0.40;;;15.10;94.40;;;;;;5077516;28;20341;-66
2022/11/17 02:22:13;;;;;;;0.40;0.40;;;15.10;94.40;;;;;;5074798;28;20701;-67
2022/11/17 02:25:30;;;;;;;0.40;0.40;;;15.10;94.50;;;;;;5074129;28;20249;-66
2022/11/17 02:28:21;;;;;;;0.40;0.40;;;15.10;94.50;;;;;;5073130;28;20285;-66
2022/11/17 02:31:20;;;;;;;0.40;0.40;;;15.10;94.30;;;;;;5073620;28;20702;-66
2022/11/17 02:34:24;;;;;;;0.40;0.40;;;15.10;94.20;;;;;;5073225;28;20276;-66
2022/11/17 02:37:18;;;;;;;0.40;0.40;;;15.10;94.40;;;;;;5071990;28;20200;-66
2022/11/17 02:40:13;;;;;;;0.40;0.40;;;15.00;94.20;;;;;;5071657;28;20692;-66
2022/11/17 02:46:13;;;;;;;1.40;1.30;;;15.00;94.30;;;;;;5072090;28;20301;-66
2022/11/17 02:49:05;;;;;;;0.40;0.40;;;15.00;94.30;;;;;;5073298;28;20279;-66
2022/11/17 02:51:56;;;;;;;0.40;0.40;;;15.00;94.50;;;;;;5072762;28;20848;-66
2022/11/17 02:54:44;;;;;;;0.40;0.40;;;15.00;94.30;;;;;;5073472;28;20693;-66
2022/11/17 02:57:34;;;;;;;0.40;0.40;;;15.00;94.50;;;;;;5072417;28;20717;-66
2022/11/17 03:00:22;;;;;;;0.60;0.60;;;15.00;94.50;;;;;;5073243;28;20217;-65
2022/11/17 03:03:24;;;;;;;0.40;0.40;;;15.00;94.70;;;;;;5072750;28;20650;-66
2022/11/17 03:06:26;;;;;;;0.40;0.40;;;15.10;94.40;;;;;;5072515;28;20232;-67
2022/11/17 03:09:21;;;;;;;0.40;0.40;;;15.10;94.20;;;;;;5072758;28;20207;-66
2022/11/17 03:12:16;;;;;;;0.40;0.40;;;15.10;94.20;;;;;;5072132;28;20224;-66
2022/11/17 03:15:13;;;;;;;0.40;0.40;;;15.10;94.10;;;;;;5073123;28;20283;-66
2022/11/17 03:18:08;;;;;;;0.40;0.40;;;15.10;93.90;;;;;;5071944;28;20617;-67
2022/11/17 03:21:05;;;;;;;0.40;0.40;;;15.10;94.20;;;;;;5071990;28;20269;-66
2022/11/17 03:24:00;;;;;;;0.40;0.40;;;15.10;94.20;;;;;;5072221;28;20232;-66
2022/11/17 03:26:52;;;;;;;0.40;0.40;;;15.10;93.90;;;;;;5072630;28;20326;-66
2022/11/17 03:29:43;;;;;;;0.40;0.40;;;15.10;93.90;;;;;;5071614;28;20275;-66
2022/11/17 03:32:36;;;;;;;0.40;0.40;;;15.10;93.70;;;;;;5072359;28;20225;-66
2022/11/17 03:35:28;;;;;;;2.35;1.88;;;15.10;94.00;;;;;;5072365;28;20716;-66
2022/11/17 03:38:20;;;;;;;0.40;0.40;;;15.10;93.80;;;;;;5072275;28;20685;-66
2022/11/17 03:41:12;;;;;;;0.40;0.40;;;15.10;93.80;;;;;;5071215;28;20228;-66
2022/11/17 03:44:01;;;;;;;0.40;0.40;;;15.10;93.80;;;;;;5071893;28;20228;-66
2022/11/17 03:46:53;;;;;;;0.93;0.93;;;15.10;93.80;;;;;;5075840;28;20680;-66
2022/11/17 03:49:45;;;;;;;0.40;0.40;;;15.10;93.90;;;;;;5075518;28;20272;-66
2022/11/17 03:52:34;;;;;;;0.40;0.40;;;15.10;93.80;;;;;;5074621;28;20254;-66
2022/11/17 03:55:30;;;;;;;0.40;0.40;;;15.10;93.90;;;;;;5075224;28;20555;-66
2022/11/17 03:58:20;;;;;;;0.63;0.63;;;15.10;93.70;;;;;;5075606;28;20210;-66
2022/11/17 04:01:09;;;;;;;0.40;0.40;;;15.00;94.10;;;;;;5073606;28;20303;-66
2022/11/17 04:03:57;;;;;;;0.40;0.40;;;15.00;93.80;;;;;;5075869;28;20234;-65
2022/11/17 04:06:45;;;;;;;0.40;0.40;;;15.00;93.90;;;;;;5075676;28;20603;-66
2022/11/17 04:09:33;;;;;;;0.60;0.60;;;15.00;93.70;;;;;;5075504;28;20192;-66
2022/11/17 04:18:34;;;;;;;0.40;0.40;;;15.00;93.80;;;;;;5075631;28;20204;-65
2022/11/17 04:21:22;;;;;;;0.40;0.40;;;14.90;93.90;;;;;;5075274;28;20303;-66
2022/11/17 04:24:10;;;;;;;0.40;0.40;;;14.90;94.00;;;;;;5075392;28;20703;-66
2022/11/17 04:30:06;;;;;;;0.40;0.40;;;15.00;94.20;;;;;;5075562;28;20196;-66
2022/11/17 04:32:54;;;;;;;0.40;0.40;;;15.00;94.20;;;;;;5074961;28;20208;-65
2022/11/17 04:35:42;;;;;;;0.50;0.50;;;15.00;93.90;;;;;;5075008;28;20232;-66
2022/11/17 04:38:30;;;;;;;0.40;0.40;;;15.00;93.90;;;;;;5074344;28;20696;-66
2022/11/17 04:44:27;;;;;;;0.40;0.40;;;15.10;94.00;;;;;;5094812;28;20231;-68
2022/11/17 04:47:17;;;;;;;0.40;0.40;;;15.10;93.80;;;;;;5096076;28;20200;-67
2022/11/17 04:50:06;;;;;;;0.40;0.40;;;15.10;93.70;;;;;;5075003;28;20562;-67
2022/11/17 04:52:54;;;;;;;0.40;0.40;;;15.10;93.70;;;;;;5074849;28;20223;-67
2022/11/17 04:55:42;;;;;;;0.40;0.40;;;15.10;93.90;;;;;;5073625;28;20207;-67
2022/11/17 04:58:30;;;;;;;0.40;0.40;;;15.10;93.30;;;;;;5074858;28;20583;-66
2022/11/17 05:01:19;;;;;;;0.40;0.40;;;15.10;93.70;;;;;;5074414;28;20329;-67
2022/11/17 05:04:10;;;;;;;0.40;0.40;;;15.20;93.80;;;;;;5074264;28;20566;-67
2022/11/17 05:06:58;;;;;;;0.40;0.40;;;15.20;93.70;;;;;;5074631;28;20215;-66
2022/11/17 05:09:46;;;;;;;0.40;0.40;;;15.20;93.80;;;;;;5073713;28;20201;-67
2022/11/17 05:18:46;;;;;;;0.40;0.40;;;15.10;93.70;;;;;;5074677;28;20201;-66
2022/11/17 05:21:36;;;;;;;0.40;0.40;;;15.10;93.70;;;;;;5073945;28;20299;-66
2022/11/17 05:24:23;;;;;;;0.40;0.40;;;15.10;93.30;;;;;;5074395;28;20290;-65
2022/11/17 05:27:11;;;;;;;0.40;0.40;;;15.10;93.60;;;;;;5073881;28;20727;-65
2022/11/17 05:29:59;;;;;;;0.40;0.40;;;15.10;93.70;;;;;;5073206;28;20193;-63
2022/11/17 05:32:47;;;;;;;0.40;0.40;;;15.10;93.40;;;;;;5073581;28;20228;-64
2022/11/17 05:35:35;;;;;;;0.40;0.40;;;15.10;93.70;;;;;;5073395;28;20193;-66
2022/11/17 05:38:24;;;;;;;0.40;0.40;;;15.00;93.30;;;;;;5073324;28;20283;-65
2022/11/17 05:41:12;;;;;;;0.40;0.40;;;15.00;93.30;;;;;;5093235;28;20263;-63
2022/11/17 05:44:01;;;;;;;0.40;0.40;;;15.00;93.40;;;;;;5094325;28;20573;-64
2022/11/17 05:46:49;;;;;;;0.40;0.40;;;15.00;93.50;;;;;;5093888;28;20276;-63
2022/11/17 05:49:37;;;;;;;0.40;0.40;;;15.00;93.60;;;;;;5094436;28;20202;-63
2022/11/17 05:52:25;;;;;;;0.40;0.40;;;15.00;93.60;;;;;;5091797;28;20230;-64
2022/11/17 05:55:14;;;;;;;0.60;0.60;;;14.90;93.50;;;;;;5093137;28;20222;-64
2022/11/17 05:58:07;;;;;;;0.40;0.40;;;14.90;93.90;;;;;;5093683;28;20200;-65
2022/11/17 06:00:57;;;;;;;0.40;0.40;;;14.90;94.80;;;;;;5091904;28;20220;-65
2022/11/17 06:03:51;;;;;;;0.40;0.40;;;14.90;93.70;;;;;;5094187;28;20226;-65
2022/11/17 06:06:39;;;;;;;0.40;0.40;;;14.90;93.90;;;;;;5094044;28;20200;-65
2022/11/17 06:09:29;;;;;;;0.40;0.40;;;15.00;93.90;;;;;;5092496;28;20218;-64
2022/11/17 06:12:18;;;;;;;0.40;0.40;;;15.00;94.30;;;;;;5091374;28;20212;-66
2022/11/17 06:15:07;;;;;;;0.40;0.40;;;15.10;94.20;;;;;;5092172;28;20204;-68
2022/11/17 06:17:58;;;;;;;0.73;0.73;;;15.20;94.20;;;;;;5093882;28;20665;-66
2022/11/17 06:20:49;;;;;;;0.40;0.40;;;15.30;93.30;;;;;;5091469;28;20216;-69
2022/11/17 06:23:37;;;;;;;0.40;0.40;;;15.20;93.60;;;;;;5093286;28;20231;-66
2022/11/17 06:26:26;;;;;;;0.40;0.40;;;16.50;94.10;;;;;;5091459;28;20678;-65
2022/11/17 06:29:16;;;;;;;1.98;1.88;;;15.30;93.60;;;;;;5092508;28;20338;-64
2022/11/17 06:32:04;;;;;;;0.40;0.40;;;15.40;93.70;;;;;;5093246;28;20208;-64
2022/11/17 06:34:53;;;;;;;0.40;0.40;;;15.40;93.50;;;;;;5092728;28;20273;-68
2022/11/17 06:37:43;;;;;;;0.40;0.40;;;15.40;93.30;;;;;;5092000;28;20208;-64
2022/11/17 06:40:31;;;;;;;0.50;0.50;;;15.40;93.60;;;;;;5092562;28;20307;-66
2022/11/17 06:43:20;;;;;;;0.40;0.40;;;15.40;93.30;;;;;;5090131;28;20683;-65
2022/11/17 06:46:09;;;;;;;0.40;0.40;;;15.40;93.30;;;;;;5090941;28;20226;-65
2022/11/17 06:48:57;;;;;;;0.40;0.40;;;15.40;93.30;;;;;;5091183;28;20207;-65
2022/11/17 06:51:45;;;;;;;0.50;0.50;;;15.50;93.50;;;;;;5091606;28;20218;-66
2022/11/17 06:54:34;;;;;;;0.40;0.40;;;15.40;93.20;;;;;;5092321;28;20555;-65
2022/11/17 06:57:22;;;;;;;0.40;0.40;;;15.40;93.30;;;;;;5091981;28;20717;-65
2022/11/17 07:00:11;;;;;;;0.40;0.40;;;15.40;93.30;;;;;;5091329;28;20226;-66
2022/11/17 07:03:02;;;;;;;0.40;0.40;;;15.40;93.10;;;;;;5091991;28;20262;-66
2022/11/17 07:05:50;;;;;;;0.40;0.40;;;15.40;92.70;;;;;;5091220;28;20192;-64
2022/11/17 07:08:38;;;;;;;0.40;0.40;;;15.40;93.30;;;;;;5088704;28;20200;-66
2022/11/17 07:11:27;;;;;;;0.40;0.40;;;15.40;93.20;;;;;;5089771;28;20223;-64
2022/11/17 07:14:15;;;;;;;0.40;0.40;;;15.40;93.60;;;;;;5090652;28;20200;-66
2022/11/17 07:17:03;;;;;;;0.40;0.40;;;15.50;94.10;;;;;;5089924;28;20200;-65
2022/11/17 07:19:53;;;;;;;0.40;0.40;;;15.80;94.00;;;;;;5090944;28;20255;-65
2022/11/17 07:22:41;;;;;;;0.63;0.63;;;16.20;93.80;;;;;;5090085;28;20223;-65
2022/11/17 07:25:29;;;;;;;1.50;1.40;;;16.50;93.50;;;;;;5108694;28;20269;-66
2022/11/17 07:28:17;;;;;;;0.40;0.40;;;16.90;93.30;;;;;;5093277;28;20600;-66
2022/11/17 07:31:08;;;;;;;0.40;0.40;;;17.50;93.20;;;;;;5099392;28;20236;-65
2022/11/17 07:33:56;;;;;;;0.60;0.60;;;17.40;92.90;;;;;;5093257;28;20278;-64
2022/11/17 07:36:45;;;;;;;0.40;0.40;;;17.70;92.70;;;;;;5086795;28;20326;-65
2022/11/17 07:39:33;;;;;;;0.95;0.95;;;18.00;92.40;;;;;;5083728;28;20271;-65
2022/11/17 07:42:21;;;;;;;0.40;0.40;;;18.20;92.20;;;;;;5034999;28;1057832;-68
2022/11/17 07:45:10;;;;;;;0.50;0.50;;;18.40;92.00;;;;;;5090361;28;20212;-64
2022/11/17 07:48:00;;;;;;;0.40;0.40;;;18.60;91.90;;;;;;5090314;28;20698;-68
2022/11/17 07:50:48;;;;;;;0.40;0.40;;;18.90;91.80;;;;;;5077890;28;20287;-65
2022/11/17 07:53:37;;;;;;;0.50;0.50;;;19.70;92.00;;;;;;5088831;28;20231;-67
2022/11/17 07:56:26;;;;;;;0.40;0.40;;;19.10;91.50;;;;;;5070897;28;20192;-67
2022/11/17 07:59:15;;;;;;;0.40;0.40;;;19.20;91.30;;;;;;5070503;28;20288;-66
2022/11/17 08:02:09;;;;;;;0.40;0.40;;;19.30;91.20;;;;;;5088763;28;20220;-68
2022/11/17 08:04:57;;;;;;;0.40;0.40;;;19.50;91.10;;;;;;5095303;28;20217;-72
2022/11/17 08:07:53;;;;;;;0.40;0.40;;;19.60;90.90;;;;;;5095528;28;20283;-71
2022/11/17 08:10:43;;;;;;;0.40;0.40;;;19.80;90.80;;;;;;5090228;28;20196;-67
2022/11/17 08:13:33;;;;;;;4.88;1.50;;;19.90;90.60;;;;;;5090810;28;20283;-68
2022/11/17 08:16:21;;;;;;;0.73;0.73;;;20.10;90.50;;;;;;5091368;28;20669;-64
2022/11/17 08:19:10;;;;;;;0.40;0.40;;;20.20;90.50;;;;;;5090539;28;20204;-67
2022/11/17 08:21:58;;;;;;;0.85;0.85;;;20.30;90.30;;;;;;5090765;28;20300;-70
2022/11/17 08:24:46;;;;;;;0.40;0.40;;;20.40;90.10;;;;;;5095191;28;20206;-67
2022/11/17 08:27:36;;;;;;;0.40;0.40;;;20.50;90.20;;;;;;5086536;28;20275;-71
2022/11/17 08:30:25;;;;;;;0.40;0.40;;;20.50;90.00;;;;;;5082527;28;20197;-69
2022/11/17 08:33:13;;;;;;;0.40;0.40;;;20.60;90.00;;;;;;5093786;28;20801;-66
2022/11/17 08:36:02;;;;;;;0.40;0.40;;;20.50;89.70;;;;;;5092604;28;20223;-71
2022/11/17 08:38:50;;;;;;;0.40;0.40;;;20.60;89.80;;;;;;5094650;28;20204;-69
2022/11/17 08:41:38;;;;;;;0.40;0.40;;;20.60;89.60;;;;;;5093828;28;20232;-67
2022/11/17 08:44:28;;;;;;;0.40;0.40;;;20.60;89.30;;;;;;5094064;28;20275;-66
2022/11/17 08:47:16;;;;;;;0.40;0.40;;;20.60;89.00;;;;;;5094387;28;20192;-67
2022/11/17 08:50:05;;;;;;;0.40;0.40;;;20.60;89.10;;;;;;5093432;28;20326;-66
2022/11/17 08:52:53;;;;;;;1.23;1.13;;;20.60;89.10;;;;;;5093942;28;20684;-67
2022/11/17 08:55:41;;;;;;;0.40;0.40;;;20.60;89.00;;;;;;5087506;28;20210;-66
2022/11/17 08:58:29;;;;;;;0.40;0.40;;;20.60;88.90;;;;;;5091020;28;20206;-67
2022/11/17 09:01:19;;;;;;;2.35;2.15;;;20.50;88.80;;;;;;5093531;28;20247;-67
2022/11/17 09:04:08;;;;;;;0.40;0.40;;;20.50;89.00;;;;;;5093175;28;20207;-67
2022/11/17 09:06:56;;;;;;;0.40;0.40;;;20.50;89.00;;;;;;5101353;28;20641;-67
2022/11/17 09:09:47;;;;;;;0.40;0.40;;;20.40;89.10;;;;;;5079619;28;20208;-66
2022/11/17 09:12:38;;;;;;;0.40;0.40;;;20.40;89.10;;;;;;5093253;28;20293;-68
2022/11/17 09:15:28;;;;;;;0.40;0.40;;;20.40;89.20;;;;;;5094420;28;20261;-70
2022/11/17 09:18:21;;;;;;;0.40;0.40;;;20.50;89.20;;;;;;5093006;28;20201;-68
2022/11/17 09:21:15;;;;;;;0.50;0.50;;;20.50;89.10;;;;;;5093185;28;20676;-70
2022/11/17 09:24:04;;;;;;;1.85;1.75;;;20.50;89.10;;;;;;5093010;28;20207;-67
2022/11/17 09:26:53;;;;;;;0.40;0.40;;;20.50;89.00;;;;;;5086671;28;20202;-67
2022/11/17 09:29:41;;;;;;;0.40;0.40;;;20.50;89.00;;;;;;5084778;28;20200;-67
2022/11/17 09:32:29;;;;;;;7.20;6.78;;;20.60;88.90;;;;;;5093661;28;20302;-66
2022/11/17 09:35:21;;;;;;;0.40;0.40;;;20.70;88.70;;;;;;5092985;28;20199;-65
2022/11/17 09:38:09;;;;;;;0.40;0.40;;;20.70;88.60;;;;;;5092373;28;20228;-66
2022/11/17 09:40:58;;;;;;;0.40;0.40;;;20.80;87.80;;;;;;5090944;28;20672;-66
2022/11/17 09:43:51;;;;;;;0.40;0.40;;;20.80;88.40;;;;;;5092565;28;20775;-66
2022/11/17 09:46:51;;;;;;;0.40;0.40;;;20.80;87.90;;;;;;5091399;28;20214;-68
2022/11/17 09:49:50;;;;;;;0.40;0.40;;;20.80;88.10;;;;;;5093288;28;20197;-65
2022/11/17 09:52:55;;;;;;;0.40;0.40;;;20.80;87.60;;;;;;5107571;28;20227;-67
2022/11/17 09:55:46;;;;;;;0.40;0.40;;;20.70;87.90;;;;;;5092932;28;20656;-65
2022/11/17 09:58:39;;;;;;;0.40;0.40;;;20.60;87.90;;;;;;5085222;28;20207;-67
2022/11/17 10:01:28;;;;;;;0.50;0.50;;;20.60;88.10;;;;;;5092830;28;20208;-68
2022/11/17 10:04:17;;;;;;;0.40;0.40;;;20.60;88.30;;;;;;5092216;28;20783;-67
2022/11/17 10:07:05;;;;;;;0.40;0.40;;;20.70;88.40;;;;;;5092801;28;20204;-64
2022/11/17 10:09:55;;;;;;;0.50;0.50;;;20.80;88.20;;;;;;5091284;28;20200;-65
2022/11/17 10:12:49;;;;;;;0.40;0.40;;;20.90;88.10;;;;;;5090698;28;20303;-65
2022/11/17 10:15:43;;;;;;;0.40;0.40;;;20.90;87.90;;;;;;5090992;28;20761;-67
2022/11/17 10:18:35;;;;;;;0.40;0.40;;;21.00;87.80;;;;;;5092573;28;20227;-66
2022/11/17 10:21:29;;;;;;;0.40;0.40;;;21.10;87.60;;;;;;5090336;28;20216;-65
2022/11/17 10:24:37;;;;;;;0.50;0.50;;;21.10;87.40;;;;;;5091702;28;20242;-66
2022/11/17 10:27:28;;;;;;;0.40;0.40;;;21.20;87.20;;;;;;5090593;28;20280;-65
2022/11/17 10:30:22;;;;;;;0.40;0.40;;;21.20;87.10;;;;;;5072684;28;20245;-65
2022/11/17 10:33:13;;;;;;;0.40;0.40;;;21.10;86.90;;;;;;5071897;28;20234;-64
2022/11/17 10:36:02;;;;;;;0.40;0.40;;;21.10;87.00;;;;;;5071421;28;20207;-67
2022/11/17 10:38:53;;;;;;;0.40;0.40;;;21.10;86.90;;;;;;5070842;28;20201;-67
2022/11/17 10:41:44;;;;;;;0.40;0.40;;;21.10;86.40;;;;;;5086475;22;20242;-64
2022/11/17 10:44:33;;;;;;;0.40;0.40;;;21.00;86.80;;;;;;5067193;28;20208;-63
2022/11/17 10:47:27;;;;;;;0.40;0.40;;;21.00;86.40;;;;;;5073103;28;20665;-63
2022/11/17 10:50:22;;;;;;;0.40;0.40;;;21.00;86.50;;;;;;5072228;28;20306;-64
2022/11/17 10:53:35;;;;;;;0.40;0.40;;;20.90;86.70;;;;;;5071953;28;20295;-63
2022/11/17 10:56:32;;;;;;;0.40;0.40;;;20.90;87.00;;;;;;5073617;28;20232;-63
2022/11/17 10:59:30;;;;;;;0.40;0.40;;;20.90;87.00;;;;;;5072108;28;20206;-63
2022/11/17 11:02:29;;;;;;;0.40;0.40;;;21.00;87.00;;;;;;5072065;28;20589;-62
2022/11/17 11:05:20;;;;;;;0.40;0.40;;;20.90;86.90;;;;;;5066191;28;20200;-64
2022/11/17 11:08:18;;;;;;;0.40;0.40;;;21.00;87.00;;;;;;5069891;28;20231;-64
2022/11/17 11:11:12;;;;;;;0.40;0.40;;;21.00;87.00;;;;;;5078085;28;20207;-64
2022/11/17 11:14:06;;;;;;;0.40;0.40;;;21.10;87.10;;;;;;5079914;28;20216;-64
2022/11/17 11:16:55;;;;;;;0.40;0.40;;;21.10;86.80;;;;;;5076774;28;20213;-64
2022/11/17 11:19:50;;;;;;;0.40;0.40;;;21.20;86.60;;;;;;5070730;28;20192;-64
2022/11/17 11:22:46;;;;;;;0.80;0.80;;;21.20;86.40;;;;;;5071725;28;20255;-66
2022/11/17 11:25:39;;;;;;;2.97;2.83;;;21.30;86.20;;;;;;5071542;28;20204;-64
2022/11/17 11:28:40;;;;;;;0.40;0.40;;;21.40;86.10;;;;;;5069934;28;20228;-63
2022/11/17 11:31:44;;;;;;;0.40;0.40;;;21.30;85.80;;;;;;5088369;28;20219;-64
2022/11/17 11:35:03;;;;;;;0.40;0.40;;;21.30;85.50;;;;;;5093782;28;20249;-64
2022/11/17 11:38:01;;;;;;;0.40;0.40;;;21.30;85.70;;;;;;5050985;28;20193;-64
2022/11/17 11:41:05;;;;;;;0.40;0.40;;;21.20;85.50;;;;;;5083575;28;20207;-64
2022/11/17 11:44:06;;;;;;;0.40;0.40;;;21.20;85.50;;;;;;5082160;28;20300;-64
2022/11/17 11:47:02;;;;;;;6.82;6.28;;;21.20;85.50;;;;;;5060343;28;20238;-64
2022/11/17 11:49:55;;;;;;;0.40;0.40;;;21.10;85.60;;;;;;5070350;28;20303;-63
2022/11/17 11:52:48;;;;;;;0.40;0.40;;;21.00;85.50;;;;;;5070213;28;20267;-63
2022/11/17 11:55:40;;;;;;;0.40;0.40;;;21.00;85.70;;;;;;5070839;28;20226;-64
2022/11/17 11:58:28;;;;;;;0.40;0.40;;;20.90;86.00;;;;;;5070779;28;20204;-64
2022/11/17 12:01:19;;;;;;;0.40;0.40;;;21.10;85.50;;;;;;5070577;28;20330;-64
2022/11/17 12:04:21;;;;;;;1.15;1.15;;;21.10;86.00;;;;;;5071876;28;20224;-63
2022/11/17 12:07:16;;;;;;;0.40;0.40;;;21.20;85.90;;;;;;5076700;28;20681;-63
2022/11/17 12:10:13;;;;;;;0.40;0.40;;;21.20;85.50;;;;;;5078055;28;20677;-64
2022/11/17 12:13:03;;;;;;;0.40;0.40;;;21.30;85.50;;;;;;5076984;28;21002;-64
2022/11/17 12:15:52;;;;;;;0.40;0.40;;;21.40;85.40;;;;;;5075413;28;20753;-64
2022/11/17 12:18:40;;;;;;;0.40;0.40;;;21.50;85.20;;;;;;5075298;28;20197;-64
2022/11/17 12:21:29;;;;;;;0.40;0.40;;;21.50;86.20;;;;;;5079112;28;20271;-64
2022/11/17 12:24:23;;;;;;;0.40;0.40;;;21.50;84.70;;;;;;5081393;28;20248;-64
2022/11/17 12:27:41;;;;;;;0.40;0.40;;;21.50;84.60;;;;;;5075379;28;20288;-64
2022/11/17 12:30:51;;;;;;;0.40;0.40;;;21.50;84.50;;;;;;5075514;28;20295;-63
2022/11/17 12:34:29;;;;;;;0.40;0.40;;;21.50;84.40;;;;;;5075213;28;20199;-63
2022/11/17 12:37:26;;;;;;;1.92;1.83;;;21.50;84.40;;;;;;5075776;28;20196;-64
2022/11/17 12:40:44;;;;;;;0.40;0.40;;;21.40;84.00;;;;;;5075149;28;20575;-63
2022/11/17 12:43:34;;;;;;;0.60;0.60;;;21.40;84.30;;;;;;5073871;28;20220;-64
2022/11/17 12:46:33;;;;;;;0.40;0.40;;;21.30;84.20;;;;;;5074405;28;20293;-64
2022/11/17 12:49:31;;;;;;;0.40;0.40;;;21.20;84.20;;;;;;5074278;28;20216;-63
2022/11/17 12:52:28;;;;;;;0.40;0.40;;;21.20;83.90;;;;;;5073956;28;20413;-65
2022/11/17 12:55:24;;;;;;;0.40;0.40;;;21.10;84.60;;;;;;5073664;28;20234;-64
2022/11/17 12:58:20;;;;;;;0.40;0.40;;;21.10;84.70;;;;;;5074952;28;20199;-63
2022/11/17 13:01:17;;;;;;;0.40;0.40;;;21.20;84.70;;;;;;5074800;28;20197;-63
2022/11/17 13:04:11;;;;;;;0.40;0.40;;;21.20;84.60;;;;;;5075387;28;20242;-63
2022/11/17 13:07:01;;;;;;;0.40;0.40;;;21.30;84.60;;;;;;5074667;28;20736;-66
2022/11/17 13:09:51;;;;;;;0.50;0.50;;;21.40;84.50;;;;;;5074312;28;20278;-64
2022/11/17 13:12:39;;;;;;;0.40;0.40;;;21.40;84.40;;;;;;5075364;28;20234;-64
2022/11/17 13:15:27;;;;;;;0.40;0.40;;;21.40;84.30;;;;;;5074260;28;20205;-63
2022/11/17 13:18:29;;;;;;;0.40;0.40;;;21.40;84.10;;;;;;5073143;28;20208;-64
2022/11/17 13:21:28;;;;;;;0.40;0.40;;;21.50;84.00;;;;;;5076718;28;20279;-64
2022/11/17 13:24:29;;;;;;;0.40;0.40;;;21.50;84.00;;;;;;5094666;28;20230;-65
2022/11/17 13:27:22;;;;;;;0.40;0.40;;;21.50;83.80;;;;;;5090456;28;20200;-64
2022/11/17 13:30:14;;;;;;;0.40;0.40;;;21.40;83.70;;;;;;5092357;28;20583;-63
2022/11/17 13:33:03;;;;;;;0.40;0.40;;;21.40;83.50;;;;;;5090176;28;20230;-64
2022/11/17 13:36:07;;;;;;;0.40;0.40;;;21.40;83.60;;;;;;5092237;28;20196;-64
2022/11/17 13:38:59;;;;;;;0.40;0.40;;;21.40;83.40;;;;;;5094531;28;20826;-64
2022/11/17 13:41:47;;;;;;;0.40;0.40;;;21.30;83.50;;;;;;5072251;28;20239;-65
2022/11/17 13:44:35;;;;;;;0.40;0.40;;;21.30;84.10;;;;;;5072478;28;20248;-64
2022/11/17 13:47:39;;;;;;;0.40;0.40;;;21.20;83.40;;;;;;5065877;28;20215;-64
2022/11/17 13:50:37;;;;;;;0.40;0.40;;;21.10;82.80;;;;;;5072296;28;20210;-64
2022/11/17 13:53:26;;;;;;;0.40;0.40;;;21.10;82.70;;;;;;5059036;28;20311;-64
2022/11/17 13:56:25;;;;;;;0.40;0.40;;;21.10;83.50;;;;;;5072274;28;20201;-64
2022/11/17 13:59:23;;;;;;;2.97;2.78;;;20.90;83.60;;;;;;5061371;28;20207;-64
2022/11/17 14:02:24;;;;;;;0.40;0.40;;;20.90;84.00;;;;;;5071709;28;20216;-64
2022/11/17 14:05:24;;;;;;;0.40;0.40;;;20.90;84.10;;;;;;5055865;28;20219;-65
2022/11/17 14:08:22;;;;;;;0.40;0.40;;;20.90;84.00;;;;;;5072308;28;20347;-64
2022/11/17 14:11:21;;;;;;;0.50;0.50;;;21.00;84.10;;;;;;5059041;28;20201;-65
2022/11/17 14:14:12;;;;;;;0.40;0.40;;;21.20;83.90;;;;;;5079893;28;20216;-64
2022/11/17 14:17:11;;;;;;;0.40;0.40;;;21.20;83.70;;;;;;5072525;28;20192;-64
2022/11/17 14:20:19;;;;;;;0.40;0.40;;;21.30;83.60;;;;;;5071317;28;20211;-64
2022/11/17 14:23:17;;;;;;;0.40;0.40;;;21.40;83.50;;;;;;5084504;28;20291;-64
2022/11/17 14:26:11;;;;;;;0.60;0.60;;;21.40;83.40;;;;;;5071724;28;20223;-64
2022/11/17 14:29:01;;;;;;;0.40;0.40;;;21.50;83.30;;;;;;5071107;28;20200;-64
2022/11/17 14:31:50;;;;;;;0.40;0.40;;;21.60;83.00;;;;;;5071408;28;20571;-64
2022/11/17 14:34:38;;;;;;;0.40;0.40;;;21.60;82.90;;;;;;5071287;28;20551;-64
2022/11/17 14:37:27;;;;;;;0.40;0.40;;;21.60;82.40;;;;;;5058767;28;20582;-64
2022/11/17 14:40:17;;;;;;;0.70;0.70;;;21.70;82.50;;;;;;5070325;28;20285;-64
2022/11/17 14:43:05;;;;;;;0.40;0.40;;;21.60;82.50;;;;;;5071107;28;20228;-65
2022/11/17 14:45:54;;;;;;;0.40;0.40;;;21.60;82.40;;;;;;5071286;28;20223;-64
2022/11/17 14:48:42;;;;;;;0.40;0.40;;;21.50;82.30;;;;;;5071101;28;20215;-64
2022/11/17 14:51:30;;;;;;;0.40;0.40;;;21.50;81.90;;;;;;5071446;28;20727;-64
2022/11/17 14:54:18;;;;;;;0.40;0.40;;;21.40;82.00;;;;;;5071093;28;20242;-64
2022/11/17 14:57:06;;;;;;;0.40;0.40;;;21.40;82.20;;;;;;5071282;28;20285;-64
2022/11/17 14:59:54;;;;;;;0.40;0.40;;;21.40;82.40;;;;;;5069933;28;20681;-64
2022/11/17 15:02:48;;;;;;;0.40;0.40;;;21.20;82.30;;;;;;5071786;28;20221;-64
2022/11/17 15:05:44;;;;;;;0.40;0.40;;;21.20;82.60;;;;;;5071680;28;20216;-63
2022/11/17 15:08:32;;;;;;;0.40;0.40;;;21.20;82.80;;;;;;5071267;28;20209;-63
2022/11/17 15:11:20;;;;;;;0.40;0.40;;;21.30;83.00;;;;;;5055640;28;20269;-63
2022/11/17 15:14:08;;;;;;;0.40;0.40;;;21.30;82.90;;;;;;5070886;28;20212;-62
2022/11/17 15:16:56;;;;;;;24.20;9.25;;;21.30;82.80;;;;;;5071453;28;20205;-62
2022/11/17 15:19:45;;;;;;;0.40;0.40;;;21.40;82.80;;;;;;5070179;28;20283;-63
2022/11/17 15:22:33;;;;;;;0.40;0.40;;;21.40;82.70;;;;;;5084615;28;20219;-63
2022/11/17 15:25:21;;;;;;;0.40;0.40;;;21.40;82.70;;;;;;5057229;28;20220;-63